sensor_id;sensor_type;location;lat;lon;timestamp;P1;durP1;ratioP1;P2;durP2;ratioP2
23594;SDS011;11975;47.674;9.472;2022-08-19T00:00:26;26.17;;;24.67;;
23594;SDS011;11975;47.674;9.472;2022-08-19T00:02:53;26.77;;;25.27;;
23594;SDS011;11975;47.674;9.472;2022-08-19T00:05:20;26.80;;;25.30;;
23594;SDS011;11975;47.674;9.472;2022-08-19T00:07:47;26.02;;;24.55;;
23594;SDS011;11975;47.674;9.472;2022-08-19T00:10:14;26.55;;;25.05;;
23594;SDS011;11975;47.674;9.472;2022-08-19T00:12:40;26.30;;;24.80;;
23594;SDS011;11975;47.674;9.472;2022-08-19T00:15:08;26.95;;;25.45;;
23594;SDS011;11975;47.674;9.472;2022-08-19T00:17:40;25.30;;;23.90;;
23594;SDS011;11975;47.674;9.472;2022-08-19T00:20:08;27.25;;;25.65;;
23594;SDS011;11975;47.674;9.472;2022-08-19T00:22:36;25.23;;;23.77;;
23594;SDS011;11975;47.674;9.472;2022-08-19T00:27:29;25.15;;;23.75;;
23594;SDS011;11975;47.674;9.472;2022-08-19T00:29:55;26.15;;;24.65;;
23594;SDS011;11975;47.674;9.472;2022-08-19T00:32:21;26.85;;;25.35;;
23594;SDS011;11975;47.674;9.472;2022-08-19T00:34:47;25.15;;;23.70;;
23594;SDS011;11975;47.674;9.472;2022-08-19T00:37:13;25.50;;;24.10;;
23594;SDS011;11975;47.674;9.472;2022-08-19T00:39:39;25.33;;;23.88;;
23594;SDS011;11975;47.674;9.472;2022-08-19T00:42:05;26.02;;;24.42;;
23594;SDS011;11975;47.674;9.472;2022-08-19T00:44:31;25.70;;;24.20;;
23594;SDS011;11975;47.674;9.472;2022-08-19T00:46:58;23.60;;;22.20;;
23594;SDS011;11975;47.674;9.472;2022-08-19T00:50:06;24.85;;;23.40;;
23594;SDS011;11975;47.674;9.472;2022-08-19T00:52:19;23.75;;;22.42;;
23594;SDS011;11975;47.674;9.472;2022-08-19T00:54:48;22.80;;;21.48;;
23594;SDS011;11975;47.674;9.472;2022-08-19T00:57:17;23.65;;;22.33;;
23594;SDS011;11975;47.674;9.472;2022-08-19T00:59:46;23.23;;;21.58;;
23594;SDS011;11975;47.674;9.472;2022-08-19T01:02:14;25.00;;;23.50;;
23594;SDS011;11975;47.674;9.472;2022-08-19T01:04:40;22.42;;;21.13;;
23594;SDS011;11975;47.674;9.472;2022-08-19T01:07:06;22.58;;;21.27;;
23594;SDS011;11975;47.674;9.472;2022-08-19T01:09:33;25.05;;;23.38;;
23594;SDS011;11975;47.674;9.472;2022-08-19T01:11:59;23.42;;;22.13;;
23594;SDS011;11975;47.674;9.472;2022-08-19T01:14:25;23.27;;;21.92;;
23594;SDS011;11975;47.674;9.472;2022-08-19T01:16:51;22.95;;;21.45;;
23594;SDS011;11975;47.674;9.472;2022-08-19T01:19:26;22.45;;;21.15;;
23594;SDS011;11975;47.674;9.472;2022-08-19T01:21:59;23.83;;;22.48;;
23594;SDS011;11975;47.674;9.472;2022-08-19T01:24:29;25.80;;;24.30;;
23594;SDS011;11975;47.674;9.472;2022-08-19T01:26:56;27.67;;;25.95;;
23594;SDS011;11975;47.674;9.472;2022-08-19T01:29:22;25.10;;;23.70;;
23594;SDS011;11975;47.674;9.472;2022-08-19T01:31:48;24.60;;;23.20;;
23594;SDS011;11975;47.674;9.472;2022-08-19T01:34:18;25.60;;;24.10;;
23594;SDS011;11975;47.674;9.472;2022-08-19T01:36:46;24.88;;;23.48;;
23594;SDS011;11975;47.674;9.472;2022-08-19T01:39:14;25.08;;;23.58;;
23594;SDS011;11975;47.674;9.472;2022-08-19T01:41:42;24.10;;;22.70;;
23594;SDS011;11975;47.674;9.472;2022-08-19T01:44:08;24.88;;;23.38;;
23594;SDS011;11975;47.674;9.472;2022-08-19T01:46:35;24.38;;;22.98;;
23594;SDS011;11975;47.674;9.472;2022-08-19T01:49:02;24.60;;;23.10;;
23594;SDS011;11975;47.674;9.472;2022-08-19T01:51:28;25.08;;;23.52;;
23594;SDS011;11975;47.674;9.472;2022-08-19T01:53:55;25.08;;;23.60;;
23594;SDS011;11975;47.674;9.472;2022-08-19T01:56:22;25.00;;;23.50;;
23594;SDS011;11975;47.674;9.472;2022-08-19T01:58:53;24.80;;;23.30;;
23594;SDS011;11975;47.674;9.472;2022-08-19T02:01:20;23.60;;;22.13;;
23594;SDS011;11975;47.674;9.472;2022-08-19T02:03:46;24.37;;;22.80;;
23594;SDS011;11975;47.674;9.472;2022-08-19T02:06:13;24.60;;;23.10;;
23594;SDS011;11975;47.674;9.472;2022-08-19T02:08:39;24.98;;;23.48;;
23594;SDS011;11975;47.674;9.472;2022-08-19T02:11:05;24.07;;;22.67;;
23594;SDS011;11975;47.674;9.472;2022-08-19T02:13:32;25.35;;;23.85;;
23594;SDS011;11975;47.674;9.472;2022-08-19T02:15:59;26.50;;;24.83;;
23594;SDS011;11975;47.674;9.472;2022-08-19T02:18:25;24.60;;;23.20;;
23594;SDS011;11975;47.674;9.472;2022-08-19T02:20:52;26.80;;;25.17;;
23594;SDS011;11975;47.674;9.472;2022-08-19T02:23:18;24.90;;;23.48;;
23594;SDS011;11975;47.674;9.472;2022-08-19T02:25:45;25.17;;;23.70;;
23594;SDS011;11975;47.674;9.472;2022-08-19T02:28:12;26.05;;;24.40;;
23594;SDS011;11975;47.674;9.472;2022-08-19T02:30:38;26.58;;;25.00;;
23594;SDS011;11975;47.674;9.472;2022-08-19T02:33:04;24.23;;;22.83;;
23594;SDS011;11975;47.674;9.472;2022-08-19T02:35:30;25.25;;;23.85;;
23594;SDS011;11975;47.674;9.472;2022-08-19T02:37:57;26.50;;;25.00;;
23594;SDS011;11975;47.674;9.472;2022-08-19T02:40:47;27.58;;;25.98;;
23594;SDS011;11975;47.674;9.472;2022-08-19T02:43:32;27.83;;;26.13;;
23594;SDS011;11975;47.674;9.472;2022-08-19T02:46:11;27.77;;;25.98;;
23594;SDS011;11975;47.674;9.472;2022-08-19T02:48:38;27.83;;;26.15;;
23594;SDS011;11975;47.674;9.472;2022-08-19T02:51:04;25.83;;;24.33;;
23594;SDS011;11975;47.674;9.472;2022-08-19T02:53:30;26.95;;;25.25;;
23594;SDS011;11975;47.674;9.472;2022-08-19T02:55:56;26.70;;;25.20;;
23594;SDS011;11975;47.674;9.472;2022-08-19T02:58:23;27.73;;;26.13;;
23594;SDS011;11975;47.674;9.472;2022-08-19T03:00:50;29.20;;;27.40;;
23594;SDS011;11975;47.674;9.472;2022-08-19T03:03:18;27.55;;;25.95;;
23594;SDS011;11975;47.674;9.472;2022-08-19T03:05:45;27.35;;;25.75;;
23594;SDS011;11975;47.674;9.472;2022-08-19T03:08:12;27.13;;;25.52;;
23594;SDS011;11975;47.674;9.472;2022-08-19T03:10:45;28.10;;;26.40;;
23594;SDS011;11975;47.674;9.472;2022-08-19T03:13:12;27.35;;;25.75;;
23594;SDS011;11975;47.674;9.472;2022-08-19T03:15:40;26.20;;;24.70;;
23594;SDS011;11975;47.674;9.472;2022-08-19T03:18:07;27.70;;;25.98;;
23594;SDS011;11975;47.674;9.472;2022-08-19T03:20:33;27.20;;;25.60;;
23594;SDS011;11975;47.674;9.472;2022-08-19T03:22:59;24.98;;;23.52;;
23594;SDS011;11975;47.674;9.472;2022-08-19T03:25:24;26.08;;;24.48;;
23594;SDS011;11975;47.674;9.472;2022-08-19T03:27:50;25.25;;;23.77;;
23594;SDS011;11975;47.674;9.472;2022-08-19T03:30:16;25.23;;;23.75;;
23594;SDS011;11975;47.674;9.472;2022-08-19T03:32:42;26.55;;;25.05;;
23594;SDS011;11975;47.674;9.472;2022-08-19T03:35:09;27.37;;;25.80;;
23594;SDS011;11975;47.674;9.472;2022-08-19T03:37:35;27.70;;;26.13;;
23594;SDS011;11975;47.674;9.472;2022-08-19T03:40:01;31.52;;;29.60;;
23594;SDS011;11975;47.674;9.472;2022-08-19T03:42:29;29.73;;;27.92;;
23594;SDS011;11975;47.674;9.472;2022-08-19T03:44:55;28.92;;;27.23;;
23594;SDS011;11975;47.674;9.472;2022-08-19T03:47:21;29.88;;;28.02;;
23594;SDS011;11975;47.674;9.472;2022-08-19T03:49:46;30.25;;;28.45;;
23594;SDS011;11975;47.674;9.472;2022-08-19T03:52:12;29.98;;;28.08;;
23594;SDS011;11975;47.674;9.472;2022-08-19T03:54:39;28.25;;;26.65;;
23594;SDS011;11975;47.674;9.472;2022-08-19T03:57:05;25.60;;;24.10;;
23594;SDS011;11975;47.674;9.472;2022-08-19T03:59:34;25.38;;;23.88;;
23594;SDS011;11975;47.674;9.472;2022-08-19T04:02:01;25.42;;;23.95;;
23594;SDS011;11975;47.674;9.472;2022-08-19T04:04:29;23.77;;;22.38;;
23594;SDS011;11975;47.674;9.472;2022-08-19T04:06:55;27.38;;;25.77;;
23594;SDS011;11975;47.674;9.472;2022-08-19T04:09:21;25.17;;;23.67;;
23594;SDS011;11975;47.674;9.472;2022-08-19T04:11:52;23.48;;;22.08;;
23594;SDS011;11975;47.674;9.472;2022-08-19T04:14:22;22.73;;;21.42;;
23594;SDS011;11975;47.674;9.472;2022-08-19T04:16:50;25.23;;;23.73;;
23594;SDS011;11975;47.674;9.472;2022-08-19T04:19:17;27.35;;;25.77;;
23594;SDS011;11975;47.674;9.472;2022-08-19T04:24:11;27.60;;;25.90;;
23594;SDS011;11975;47.674;9.472;2022-08-19T04:26:37;26.30;;;24.80;;
23594;SDS011;11975;47.674;9.472;2022-08-19T04:29:06;26.73;;;25.08;;
23594;SDS011;11975;47.674;9.472;2022-08-19T04:31:38;25.58;;;24.08;;
23594;SDS011;11975;47.674;9.472;2022-08-19T04:34:08;24.33;;;22.88;;
23594;SDS011;11975;47.674;9.472;2022-08-19T04:36:38;24.38;;;22.85;;
23594;SDS011;11975;47.674;9.472;2022-08-19T04:39:08;23.98;;;22.60;;
23594;SDS011;11975;47.674;9.472;2022-08-19T04:41:36;24.83;;;23.33;;
23594;SDS011;11975;47.674;9.472;2022-08-19T04:44:20;23.48;;;22.13;;
23594;SDS011;11975;47.674;9.472;2022-08-19T04:46:47;25.42;;;23.23;;
23594;SDS011;11975;47.674;9.472;2022-08-19T04:49:14;22.88;;;21.48;;
23594;SDS011;11975;47.674;9.472;2022-08-19T04:51:43;22.75;;;21.45;;
23594;SDS011;11975;47.674;9.472;2022-08-19T04:54:11;22.92;;;21.52;;
23594;SDS011;11975;47.674;9.472;2022-08-19T04:56:38;22.17;;;20.95;;
23594;SDS011;11975;47.674;9.472;2022-08-19T04:59:04;24.35;;;22.75;;
23594;SDS011;11975;47.674;9.472;2022-08-19T05:01:31;24.13;;;22.73;;
23594;SDS011;11975;47.674;9.472;2022-08-19T05:03:59;23.98;;;22.58;;
23594;SDS011;11975;47.674;9.472;2022-08-19T05:06:26;24.15;;;22.75;;
23594;SDS011;11975;47.674;9.472;2022-08-19T05:08:54;24.83;;;23.33;;
23594;SDS011;11975;47.674;9.472;2022-08-19T05:11:25;25.05;;;23.55;;
23594;SDS011;11975;47.674;9.472;2022-08-19T05:13:54;23.08;;;21.77;;
23594;SDS011;11975;47.674;9.472;2022-08-19T05:16:20;24.58;;;23.05;;
23594;SDS011;11975;47.674;9.472;2022-08-19T05:21:31;24.85;;;23.40;;
23594;SDS011;11975;47.674;9.472;2022-08-19T05:24:16;24.92;;;23.50;;
23594;SDS011;11975;47.674;9.472;2022-08-19T05:26:43;23.77;;;22.38;;
23594;SDS011;11975;47.674;9.472;2022-08-19T05:29:12;23.92;;;22.52;;
23594;SDS011;11975;47.674;9.472;2022-08-19T05:31:39;23.42;;;22.10;;
23594;SDS011;11975;47.674;9.472;2022-08-19T05:34:05;25.27;;;23.83;;
23594;SDS011;11975;47.674;9.472;2022-08-19T05:36:36;25.10;;;23.60;;
23594;SDS011;11975;47.674;9.472;2022-08-19T05:39:06;24.17;;;22.77;;
23594;SDS011;11975;47.674;9.472;2022-08-19T05:41:33;24.35;;;22.95;;
23594;SDS011;11975;47.674;9.472;2022-08-19T05:44:03;23.90;;;22.50;;
23594;SDS011;11975;47.674;9.472;2022-08-19T05:46:31;24.02;;;22.52;;
23594;SDS011;11975;47.674;9.472;2022-08-19T05:48:57;23.77;;;22.35;;
23594;SDS011;11975;47.674;9.472;2022-08-19T05:51:24;25.60;;;23.98;;
23594;SDS011;11975;47.674;9.472;2022-08-19T05:53:50;25.67;;;24.17;;
23594;SDS011;11975;47.674;9.472;2022-08-19T05:56:16;24.50;;;23.10;;
23594;SDS011;11975;47.674;9.472;2022-08-19T05:58:43;25.52;;;23.95;;
23594;SDS011;11975;47.674;9.472;2022-08-19T06:01:12;25.75;;;24.02;;
23594;SDS011;11975;47.674;9.472;2022-08-19T06:03:39;26.67;;;25.08;;
23594;SDS011;11975;47.674;9.472;2022-08-19T06:06:05;25.23;;;23.83;;
23594;SDS011;11975;47.674;9.472;2022-08-19T06:08:33;25.60;;;23.90;;
23594;SDS011;11975;47.674;9.472;2022-08-19T06:13:44;26.90;;;24.92;;
23594;SDS011;11975;47.674;9.472;2022-08-19T06:16:13;25.92;;;24.23;;
23594;SDS011;11975;47.674;9.472;2022-08-19T06:18:46;27.10;;;25.48;;
23594;SDS011;11975;47.674;9.472;2022-08-19T06:21:12;29.17;;;27.27;;
23594;SDS011;11975;47.674;9.472;2022-08-19T06:23:38;27.85;;;26.25;;
23594;SDS011;11975;47.674;9.472;2022-08-19T06:26:04;28.67;;;26.58;;
23594;SDS011;11975;47.674;9.472;2022-08-19T06:28:30;28.48;;;26.60;;
23594;SDS011;11975;47.674;9.472;2022-08-19T06:30:58;28.77;;;27.08;;
23594;SDS011;11975;47.674;9.472;2022-08-19T06:33:24;29.70;;;27.70;;
23594;SDS011;11975;47.674;9.472;2022-08-19T06:35:50;28.60;;;26.70;;
23594;SDS011;11975;47.674;9.472;2022-08-19T06:38:16;28.52;;;26.83;;
23594;SDS011;11975;47.674;9.472;2022-08-19T06:40:42;29.17;;;27.45;;
23594;SDS011;11975;47.674;9.472;2022-08-19T06:43:08;29.35;;;27.52;;
23594;SDS011;11975;47.674;9.472;2022-08-19T06:45:35;29.35;;;27.55;;
23594;SDS011;11975;47.674;9.472;2022-08-19T06:48:03;29.05;;;27.17;;
23594;SDS011;11975;47.674;9.472;2022-08-19T06:50:29;26.48;;;24.85;;
23594;SDS011;11975;47.674;9.472;2022-08-19T06:52:55;30.50;;;28.33;;
23594;SDS011;11975;47.674;9.472;2022-08-19T06:55:21;30.40;;;27.95;;
23594;SDS011;11975;47.674;9.472;2022-08-19T06:57:47;28.65;;;26.90;;
23594;SDS011;11975;47.674;9.472;2022-08-19T07:00:13;28.65;;;26.75;;
23594;SDS011;11975;47.674;9.472;2022-08-19T07:02:40;28.73;;;26.13;;
23594;SDS011;11975;47.674;9.472;2022-08-19T07:05:07;29.27;;;27.55;;
23594;SDS011;11975;47.674;9.472;2022-08-19T07:07:34;28.75;;;27.00;;
23594;SDS011;11975;47.674;9.472;2022-08-19T07:10:00;29.13;;;27.30;;
23594;SDS011;11975;47.674;9.472;2022-08-19T07:12:30;28.50;;;26.80;;
23594;SDS011;11975;47.674;9.472;2022-08-19T07:14:59;29.75;;;27.88;;
23594;SDS011;11975;47.674;9.472;2022-08-19T07:17:26;30.20;;;28.40;;
23594;SDS011;11975;47.674;9.472;2022-08-19T07:19:53;30.65;;;28.67;;
23594;SDS011;11975;47.674;9.472;2022-08-19T07:22:20;30.52;;;28.35;;
23594;SDS011;11975;47.674;9.472;2022-08-19T07:24:48;28.02;;;26.33;;
23594;SDS011;11975;47.674;9.472;2022-08-19T07:27:14;29.95;;;28.05;;
23594;SDS011;11975;47.674;9.472;2022-08-19T07:29:40;28.02;;;26.38;;
23594;SDS011;11975;47.674;9.472;2022-08-19T07:32:06;30.63;;;28.70;;
23594;SDS011;11975;47.674;9.472;2022-08-19T07:34:32;31.00;;;29.13;;
23594;SDS011;11975;47.674;9.472;2022-08-19T07:37:06;27.60;;;25.95;;
23594;SDS011;11975;47.674;9.472;2022-08-19T07:39:33;30.52;;;28.63;;
23594;SDS011;11975;47.674;9.472;2022-08-19T07:42:00;30.50;;;28.63;;
23594;SDS011;11975;47.674;9.472;2022-08-19T07:44:29;31.88;;;29.70;;
23594;SDS011;11975;47.674;9.472;2022-08-19T07:46:55;29.50;;;27.70;;
23594;SDS011;11975;47.674;9.472;2022-08-19T07:51:49;29.67;;;27.87;;
23594;SDS011;11975;47.674;9.472;2022-08-19T07:54:20;29.73;;;27.83;;
23594;SDS011;11975;47.674;9.472;2022-08-19T07:56:46;29.10;;;27.40;;
23594;SDS011;11975;47.674;9.472;2022-08-19T07:59:12;30.67;;;28.50;;
23594;SDS011;11975;47.674;9.472;2022-08-19T08:01:38;31.45;;;29.33;;
23594;SDS011;11975;47.674;9.472;2022-08-19T08:04:06;30.75;;;28.73;;
23594;SDS011;11975;47.674;9.472;2022-08-19T08:06:51;29.50;;;27.70;;
23594;SDS011;11975;47.674;9.472;2022-08-19T08:09:37;30.90;;;29.00;;
23594;SDS011;11975;47.674;9.472;2022-08-19T08:12:09;30.75;;;28.52;;
23594;SDS011;11975;47.674;9.472;2022-08-19T08:14:38;29.98;;;28.25;;
23594;SDS011;11975;47.674;9.472;2022-08-19T08:17:07;32.40;;;30.02;;
23594;SDS011;11975;47.674;9.472;2022-08-19T08:19:34;33.10;;;31.02;;
23594;SDS011;11975;47.674;9.472;2022-08-19T08:22:01;33.50;;;31.40;;
23594;SDS011;11975;47.674;9.472;2022-08-19T08:24:28;32.55;;;30.17;;
23594;SDS011;11975;47.674;9.472;2022-08-19T08:26:56;31.02;;;28.58;;
23594;SDS011;11975;47.674;9.472;2022-08-19T08:29:24;31.40;;;28.88;;
23594;SDS011;11975;47.674;9.472;2022-08-19T08:31:55;30.05;;;28.15;;
23594;SDS011;11975;47.674;9.472;2022-08-19T08:34:22;30.45;;;28.55;;
23594;SDS011;11975;47.674;9.472;2022-08-19T08:36:48;29.48;;;27.58;;
23594;SDS011;11975;47.674;9.472;2022-08-19T08:39:15;29.17;;;27.38;;
23594;SDS011;11975;47.674;9.472;2022-08-19T08:44:38;26.13;;;24.17;;
23594;SDS011;11975;47.674;9.472;2022-08-19T08:47:10;24.83;;;23.33;;
23594;SDS011;11975;47.674;9.472;2022-08-19T08:49:42;24.13;;;22.63;;
23594;SDS011;11975;47.674;9.472;2022-08-19T08:52:23;24.23;;;22.63;;
23594;SDS011;11975;47.674;9.472;2022-08-19T08:54:54;23.77;;;22.08;;
23594;SDS011;11975;47.674;9.472;2022-08-19T08:57:23;25.65;;;24.05;;
23594;SDS011;11975;47.674;9.472;2022-08-19T08:59:53;25.13;;;23.33;;
23594;SDS011;11975;47.674;9.472;2022-08-19T09:02:20;24.17;;;22.67;;
23594;SDS011;11975;47.674;9.472;2022-08-19T09:04:46;25.35;;;23.60;;
23594;SDS011;11975;47.674;9.472;2022-08-19T09:09:42;24.27;;;22.77;;
23594;SDS011;11975;47.674;9.472;2022-08-19T09:12:25;24.88;;;23.38;;
23594;SDS011;11975;47.674;9.472;2022-08-19T09:15:01;25.55;;;23.90;;
23594;SDS011;11975;47.674;9.472;2022-08-19T09:17:29;25.55;;;23.92;;
23594;SDS011;11975;47.674;9.472;2022-08-19T09:20:02;24.63;;;22.85;;
23594;SDS011;11975;47.674;9.472;2022-08-19T09:22:34;25.17;;;23.52;;
23594;SDS011;11975;47.674;9.472;2022-08-19T09:25:01;26.33;;;24.60;;
23594;SDS011;11975;47.674;9.472;2022-08-19T09:27:28;24.73;;;23.17;;
23594;SDS011;11975;47.674;9.472;2022-08-19T09:29:54;26.67;;;24.60;;
23594;SDS011;11975;47.674;9.472;2022-08-19T09:32:21;26.02;;;23.98;;
23594;SDS011;11975;47.674;9.472;2022-08-19T09:37:13;23.33;;;21.93;;
23594;SDS011;11975;47.674;9.472;2022-08-19T09:39:39;24.67;;;23.10;;
23594;SDS011;11975;47.674;9.472;2022-08-19T09:42:09;24.30;;;22.85;;
23594;SDS011;11975;47.674;9.472;2022-08-19T09:44:38;24.98;;;23.17;;
23594;SDS011;11975;47.674;9.472;2022-08-19T09:47:04;25.10;;;23.60;;
23594;SDS011;11975;47.674;9.472;2022-08-19T09:49:30;28.48;;;26.77;;
23594;SDS011;11975;47.674;9.472;2022-08-19T09:51:56;32.03;;;29.85;;
23594;SDS011;11975;47.674;9.472;2022-08-19T09:54:23;31.10;;;29.10;;
23594;SDS011;11975;47.674;9.472;2022-08-19T09:56:49;30.85;;;29.05;;
23594;SDS011;11975;47.674;9.472;2022-08-19T09:59:15;32.55;;;30.65;;
23594;SDS011;11975;47.674;9.472;2022-08-19T10:01:41;31.98;;;29.65;;
23594;SDS011;11975;47.674;9.472;2022-08-19T10:04:07;33.80;;;31.00;;
23594;SDS011;11975;47.674;9.472;2022-08-19T10:06:37;33.70;;;31.48;;
23594;SDS011;11975;47.674;9.472;2022-08-19T10:09:07;32.05;;;29.77;;
23594;SDS011;11975;47.674;9.472;2022-08-19T10:11:35;32.28;;;30.30;;
23594;SDS011;11975;47.674;9.472;2022-08-19T10:14:03;32.10;;;30.10;;
23594;SDS011;11975;47.674;9.472;2022-08-19T10:16:31;31.98;;;29.98;;
23594;SDS011;11975;47.674;9.472;2022-08-19T10:18:57;30.77;;;28.87;;
23594;SDS011;11975;47.674;9.472;2022-08-19T10:21:29;32.10;;;30.10;;
23594;SDS011;11975;47.674;9.472;2022-08-19T10:23:57;32.17;;;30.17;;
23594;SDS011;11975;47.674;9.472;2022-08-19T10:26:25;31.40;;;29.50;;
23594;SDS011;11975;47.674;9.472;2022-08-19T10:28:53;31.35;;;29.25;;
23594;SDS011;11975;47.674;9.472;2022-08-19T10:31:20;30.85;;;29.05;;
23594;SDS011;11975;47.674;9.472;2022-08-19T10:33:49;32.67;;;30.70;;
23594;SDS011;11975;47.674;9.472;2022-08-19T10:36:17;33.17;;;31.10;;
23594;SDS011;11975;47.674;9.472;2022-08-19T10:38:45;31.20;;;29.40;;
23594;SDS011;11975;47.674;9.472;2022-08-19T10:41:14;32.35;;;30.13;;
23594;SDS011;11975;47.674;9.472;2022-08-19T10:43:44;31.00;;;29.05;;
23594;SDS011;11975;47.674;9.472;2022-08-19T10:46:13;29.70;;;27.90;;
23594;SDS011;11975;47.674;9.472;2022-08-19T10:48:40;29.67;;;27.90;;
23594;SDS011;11975;47.674;9.472;2022-08-19T10:51:07;31.40;;;29.33;;
23594;SDS011;11975;47.674;9.472;2022-08-19T10:53:52;29.23;;;27.38;;
23594;SDS011;11975;47.674;9.472;2022-08-19T10:56:18;27.48;;;25.88;;
23594;SDS011;11975;47.674;9.472;2022-08-19T10:59:03;29.17;;;27.38;;
23594;SDS011;11975;47.674;9.472;2022-08-19T11:01:29;29.95;;;27.73;;
23594;SDS011;11975;47.674;9.472;2022-08-19T11:03:57;29.33;;;27.50;;
23594;SDS011;11975;47.674;9.472;2022-08-19T11:06:23;26.52;;;24.92;;
23594;SDS011;11975;47.674;9.472;2022-08-19T11:08:51;29.27;;;27.45;;
23594;SDS011;11975;47.674;9.472;2022-08-19T11:11:18;27.90;;;26.23;;
23594;SDS011;11975;47.674;9.472;2022-08-19T11:13:44;29.13;;;27.23;;
23594;SDS011;11975;47.674;9.472;2022-08-19T11:16:12;29.80;;;27.95;;
23594;SDS011;11975;47.674;9.472;2022-08-19T11:18:41;29.23;;;27.42;;
23594;SDS011;11975;47.674;9.472;2022-08-19T11:21:11;30.75;;;28.92;;
23594;SDS011;11975;47.674;9.472;2022-08-19T11:23:40;28.95;;;27.20;;
23594;SDS011;11975;47.674;9.472;2022-08-19T11:26:06;29.10;;;27.30;;
23594;SDS011;11975;47.674;9.472;2022-08-19T11:28:32;26.83;;;25.25;;
23594;SDS011;11975;47.674;9.472;2022-08-19T11:30:58;30.55;;;28.75;;
23594;SDS011;11975;47.674;9.472;2022-08-19T11:33:24;29.75;;;27.92;;
23594;SDS011;11975;47.674;9.472;2022-08-19T11:35:52;29.13;;;27.35;;
23594;SDS011;11975;47.674;9.472;2022-08-19T11:40:44;28.43;;;26.73;;
23594;SDS011;11975;47.674;9.472;2022-08-19T11:43:10;26.05;;;24.48;;
23594;SDS011;11975;47.674;9.472;2022-08-19T11:45:36;27.48;;;25.48;;
23594;SDS011;11975;47.674;9.472;2022-08-19T11:48:02;27.08;;;25.48;;
23594;SDS011;11975;47.674;9.472;2022-08-19T11:50:28;28.98;;;27.20;;
23594;SDS011;11975;47.674;9.472;2022-08-19T11:52:55;27.08;;;25.48;;
23594;SDS011;11975;47.674;9.472;2022-08-19T11:55:21;26.10;;;24.50;;
23594;SDS011;11975;47.674;9.472;2022-08-19T11:57:47;24.30;;;22.90;;
23594;SDS011;11975;47.674;9.472;2022-08-19T12:00:13;29.25;;;27.42;;
23594;SDS011;11975;47.674;9.472;2022-08-19T12:02:40;25.83;;;24.33;;
23594;SDS011;11975;47.674;9.472;2022-08-19T12:05:06;26.37;;;24.83;;
23594;SDS011;11975;47.674;9.472;2022-08-19T12:07:33;25.10;;;22.85;;
23594;SDS011;11975;47.674;9.472;2022-08-19T12:09:59;27.38;;;25.67;;
23594;SDS011;11975;47.674;9.472;2022-08-19T12:12:26;27.55;;;25.85;;
23594;SDS011;11975;47.674;9.472;2022-08-19T12:14:52;27.90;;;26.25;;
23594;SDS011;11975;47.674;9.472;2022-08-19T12:17:22;28.42;;;26.63;;
23594;SDS011;11975;47.674;9.472;2022-08-19T12:22:14;24.23;;;22.83;;
23594;SDS011;11975;47.674;9.472;2022-08-19T12:24:40;23.98;;;22.60;;
23594;SDS011;11975;47.674;9.472;2022-08-19T12:27:06;25.38;;;23.75;;
23594;SDS011;11975;47.674;9.472;2022-08-19T12:29:32;23.48;;;22.08;;
23594;SDS011;11975;47.674;9.472;2022-08-19T12:31:59;25.73;;;24.23;;
23594;SDS011;11975;47.674;9.472;2022-08-19T12:34:27;25.13;;;23.60;;
23594;SDS011;11975;47.674;9.472;2022-08-19T12:36:56;27.02;;;25.42;;
23594;SDS011;11975;47.674;9.472;2022-08-19T12:39:23;25.08;;;23.63;;
23594;SDS011;11975;47.674;9.472;2022-08-19T12:41:49;24.10;;;22.60;;
23594;SDS011;11975;47.674;9.472;2022-08-19T12:44:15;25.17;;;23.42;;
23594;SDS011;11975;47.674;9.472;2022-08-19T12:46:42;25.27;;;23.80;;
23594;SDS011;11975;47.674;9.472;2022-08-19T12:49:08;26.25;;;24.67;;
23594;SDS011;11975;47.674;9.472;2022-08-19T12:51:34;27.48;;;25.88;;
23594;SDS011;11975;47.674;9.472;2022-08-19T12:54:00;23.90;;;22.33;;
23594;SDS011;11975;47.674;9.472;2022-08-19T12:56:27;23.40;;;22.10;;
23594;SDS011;11975;47.674;9.472;2022-08-19T12:58:52;22.52;;;21.23;;
23594;SDS011;11975;47.674;9.472;2022-08-19T13:01:19;24.83;;;23.37;;
23594;SDS011;11975;47.674;9.472;2022-08-19T13:03:46;25.20;;;23.75;;
23594;SDS011;11975;47.674;9.472;2022-08-19T13:06:12;25.25;;;23.65;;
23594;SDS011;11975;47.674;9.472;2022-08-19T13:08:38;22.13;;;20.83;;
23594;SDS011;11975;47.674;9.472;2022-08-19T13:11:11;23.55;;;22.20;;
23594;SDS011;11975;47.674;9.472;2022-08-19T13:13:39;22.42;;;21.13;;
23594;SDS011;11975;47.674;9.472;2022-08-19T13:16:07;24.63;;;23.05;;
23594;SDS011;11975;47.674;9.472;2022-08-19T13:18:34;25.02;;;22.10;;
23594;SDS011;11975;47.674;9.472;2022-08-19T13:21:06;23.83;;;22.45;;
23594;SDS011;11975;47.674;9.472;2022-08-19T13:23:33;22.50;;;21.20;;
23594;SDS011;11975;47.674;9.472;2022-08-19T13:26:02;22.27;;;20.98;;
23594;SDS011;11975;47.674;9.472;2022-08-19T13:28:30;22.83;;;21.52;;
23594;SDS011;11975;47.674;9.472;2022-08-19T13:31:20;22.25;;;20.88;;
23594;SDS011;11975;47.674;9.472;2022-08-19T13:34:06;25.25;;;23.75;;
23594;SDS011;11975;47.674;9.472;2022-08-19T13:36:32;22.48;;;21.17;;
23594;SDS011;11975;47.674;9.472;2022-08-19T13:38:59;23.08;;;21.77;;
23594;SDS011;11975;47.674;9.472;2022-08-19T13:41:25;22.70;;;21.30;;
23594;SDS011;11975;47.674;9.472;2022-08-19T13:43:52;22.58;;;21.23;;
23594;SDS011;11975;47.674;9.472;2022-08-19T13:46:18;22.75;;;21.23;;
23594;SDS011;11975;47.674;9.472;2022-08-19T13:48:45;25.40;;;23.58;;
23594;SDS011;11975;47.674;9.472;2022-08-19T13:51:12;23.88;;;22.48;;
23594;SDS011;11975;47.674;9.472;2022-08-19T13:53:38;24.90;;;23.40;;
23594;SDS011;11975;47.674;9.472;2022-08-19T13:56:05;23.52;;;22.13;;
23594;SDS011;11975;47.674;9.472;2022-08-19T13:58:32;24.80;;;23.13;;
23594;SDS011;11975;47.674;9.472;2022-08-19T14:00:58;23.42;;;22.02;;
23594;SDS011;11975;47.674;9.472;2022-08-19T14:03:25;24.58;;;23.02;;
23594;SDS011;11975;47.674;9.472;2022-08-19T14:05:51;24.05;;;22.58;;
23594;SDS011;11975;47.674;9.472;2022-08-19T14:08:17;22.38;;;21.08;;
23594;SDS011;11975;47.674;9.472;2022-08-19T14:10:43;24.80;;;23.27;;
23594;SDS011;11975;47.674;9.472;2022-08-19T14:13:12;26.48;;;24.88;;
23594;SDS011;11975;47.674;9.472;2022-08-19T14:15:40;22.67;;;21.38;;
23594;SDS011;11975;47.674;9.472;2022-08-19T14:18:05;23.75;;;22.25;;
23594;SDS011;11975;47.674;9.472;2022-08-19T14:20:34;24.75;;;23.17;;
23594;SDS011;11975;47.674;9.472;2022-08-19T14:23:00;25.63;;;23.95;;
23594;SDS011;11975;47.674;9.472;2022-08-19T14:25:27;26.13;;;24.52;;
23594;SDS011;11975;47.674;9.472;2022-08-19T14:27:55;23.58;;;22.02;;
23594;SDS011;11975;47.674;9.472;2022-08-19T14:30:23;21.92;;;20.63;;
23594;SDS011;11975;47.674;9.472;2022-08-19T14:32:54;23.10;;;21.70;;
23594;SDS011;11975;47.674;9.472;2022-08-19T14:35:23;23.92;;;22.42;;
23594;SDS011;11975;47.674;9.472;2022-08-19T14:37:50;23.85;;;22.35;;
23594;SDS011;11975;47.674;9.472;2022-08-19T14:40:22;24.52;;;22.92;;
23594;SDS011;11975;47.674;9.472;2022-08-19T14:42:53;21.98;;;20.67;;
23594;SDS011;11975;47.674;9.472;2022-08-19T14:45:25;24.23;;;22.52;;
23594;SDS011;11975;47.674;9.472;2022-08-19T14:47:52;24.88;;;23.30;;
23594;SDS011;11975;47.674;9.472;2022-08-19T14:50:19;23.65;;;21.85;;